Time;durP1;ratioP1;P1;durP2;ratioP2;P2;SDS_P1;SDS_P2;PMS_P1;PMS_P2;Temp;Humidity;BMP_temperature;BMP_pressure;BME280_temperature;BME280_humidity;BME280_pressure;Samples;Min_cycle;Max_cycle;Signal;HPM_P1;HPM_P2
2023/12/07 00:00:17;;;;;;;2.17;2.00;;;;;;;;;;1051732;28;20020;-73
2023/12/07 00:00:47;;;;;;;2.20;2.03;;;;;;;;;;1052208;28;21263;-73
2023/12/07 00:01:18;;;;;;;2.13;1.92;;;;;;;;;;1052017;28;20024;-73
2023/12/07 00:01:48;;;;;;;7.10;2.10;;;;;;;;;;1051590;28;20016;-73
2023/12/07 00:02:19;;;;;;;9.07;5.10;;;;;;;;;;1051783;28;20066;-73
2023/12/07 00:02:49;;;;;;;2.25;1.77;;;;;;;;;;1051683;28;20016;-73
2023/12/07 00:03:20;;;;;;;7.55;3.45;;;;;;;;;;1051878;28;20039;-73
2023/12/07 00:03:50;;;;;;;2.40;1.15;;;;;;;;;;1051663;28;20016;-73
2023/12/07 00:04:20;;;;;;;1.42;1.33;;;;;;;;;;1051573;28;20024;-73
2023/12/07 00:04:51;;;;;;;1.23;1.23;;;;;;;;;;1051533;28;20055;-73
2023/12/07 00:05:21;;;;;;;3.28;2.40;;;;;;;;;;1051784;28;20030;-73
2023/12/07 00:05:52;;;;;;;1.05;1.05;;;;;;;;;;1049365;28;20044;-73
2023/12/07 00:06:22;;;;;;;7.18;2.97;;;;;;;;;;1049707;28;20039;-73
2023/12/07 00:06:54;;;;;;;2.88;2.42;;;;;;;;;;1051446;28;20051;-73
2023/12/07 00:07:24;;;;;;;10.90;3.00;;;;;;;;;;1051492;28;20067;-73
2023/12/07 00:07:55;;;;;;;4.45;2.97;;;;;;;;;;1051379;28;20028;-73
2023/12/07 00:08:25;;;;;;;2.90;2.70;;;;;;;;;;1052075;28;20039;-73
2023/12/07 00:08:56;;;;;;;2.40;2.20;;;;;;;;;;1051561;28;20033;-73
2023/12/07 00:09:26;;;;;;;1.45;1.02;;;;;;;;;;1051885;28;20048;-73
2023/12/07 00:09:57;;;;;;;3.20;1.65;;;;;;;;;;1051798;28;20027;-73
2023/12/07 00:10:27;;;;;;;1.92;1.83;;;;;;;;;;1051910;28;20499;-73
2023/12/07 00:10:57;;;;;;;1.90;1.80;;;;;;;;;;1052146;28;20016;-73
2023/12/07 00:11:28;;;;;;;1.17;1.17;;;;;;;;;;1051570;28;20058;-73
2023/12/07 00:11:58;;;;;;;1.17;1.13;;;;;;;;;;1052025;28;20020;-73
2023/12/07 00:12:29;;;;;;;2.08;0.88;;;;;;;;;;1051573;28;20032;-73
2023/12/07 00:12:59;;;;;;;6.97;4.30;;;;;;;;;;1051595;28;20019;-73
2023/12/07 00:13:29;;;;;;;1.50;1.40;;;;;;;;;;1051619;28;20024;-73
2023/12/07 00:14:00;;;;;;;2.40;2.20;;;;;;;;;;1051590;28;20031;-73
2023/12/07 00:14:30;;;;;;;2.95;1.83;;;;;;;;;;1051870;28;20027;-73
2023/12/07 00:15:02;;;;;;;2.00;1.90;;;;;;;;;;1052109;28;20063;-73
2023/12/07 00:15:33;;;;;;;4.28;3.95;;;;;;;;;;1051951;28;20028;-73
2023/12/07 00:16:04;;;;;;;3.53;3.22;;;;;;;;;;1051841;28;20520;-73
2023/12/07 00:16:34;;;;;;;1.45;1.33;;;;;;;;;;1051542;28;20111;-73
2023/12/07 00:17:05;;;;;;;3.58;3.25;;;;;;;;;;1051926;28;20032;-73
2023/12/07 00:17:35;;;;;;;3.70;2.03;;;;;;;;;;1051734;28;20066;-73
2023/12/07 00:18:06;;;;;;;1.73;1.63;;;;;;;;;;1051131;28;20450;-73
2023/12/07 00:18:36;;;;;;;4.45;2.38;;;;;;;;;;1052082;28;20467;-73
2023/12/07 00:19:07;;;;;;;7.53;3.83;;;;;;;;;;1052139;28;20082;-73
2023/12/07 00:19:37;;;;;;;1.20;1.10;;;;;;;;;;1051818;28;20043;-73
2023/12/07 00:20:08;;;;;;;2.70;1.95;;;;;;;;;;1051732;28;20028;-73
2023/12/07 00:20:38;;;;;;;3.95;3.03;;;;;;;;;;1052136;28;20153;-73
2023/12/07 00:21:09;;;;;;;4.80;2.47;;;;;;;;;;1051940;28;20063;-73
2023/12/07 00:21:39;;;;;;;2.13;2.03;;;;;;;;;;1051777;28;20028;-73
2023/12/07 00:22:10;;;;;;;2.40;2.20;;;;;;;;;;1051673;28;20052;-73
2023/12/07 00:22:41;;;;;;;3.70;3.38;;;;;;;;;;1051593;28;20026;-73
2023/12/07 00:23:11;;;;;;;2.97;2.75;;;;;;;;;;1052068;28;20391;-73
2023/12/07 00:23:42;;;;;;;3.20;2.67;;;;;;;;;;1051640;28;20092;-73
2023/12/07 00:24:12;;;;;;;5.57;4.35;;;;;;;;;;1051433;28;20032;-73
2023/12/07 00:24:43;;;;;;;1.20;1.10;;;;;;;;;;1051933;28;20028;-73
2023/12/07 00:25:13;;;;;;;2.00;1.85;;;;;;;;;;1051609;28;20024;-73
2023/12/07 00:25:45;;;;;;;3.58;3.30;;;;;;;;;;1051473;28;20031;-73
2023/12/07 00:26:16;;;;;;;6.68;2.70;;;;;;;;;;1051468;28;20024;-73
2023/12/07 00:26:46;;;;;;;0.80;0.80;;;;;;;;;;1051579;28;20591;-73
2023/12/07 00:27:16;;;;;;;4.57;1.17;;;;;;;;;;1051881;28;20536;-73
2023/12/07 00:27:47;;;;;;;0.98;0.90;;;;;;;;;;1051555;28;20123;-73
2023/12/07 00:28:18;;;;;;;2.10;2.00;;;;;;;;;;1052007;28;20464;-73
2023/12/07 00:28:48;;;;;;;2.63;2.33;;;;;;;;;;1052069;28;20468;-73
2023/12/07 00:29:18;;;;;;;18.88;1.75;;;;;;;;;;1052273;28;20020;-73
2023/12/07 00:29:49;;;;;;;4.40;3.47;;;;;;;;;;1051599;28;20020;-73
2023/12/07 00:30:20;;;;;;;0.63;0.63;;;;;;;;;;1051469;28;20031;-73
2023/12/07 00:30:51;;;;;;;2.53;2.33;;;;;;;;;;1049552;28;20047;-73
2023/12/07 00:31:21;;;;;;;0.68;0.68;;;;;;;;;;1048881;28;20020;-73
2023/12/07 00:31:52;;;;;;;3.70;3.25;;;;;;;;;;1049553;28;20098;-73
2023/12/07 00:32:22;;;;;;;3.35;1.65;;;;;;;;;;1051711;28;20086;-73
2023/12/07 00:32:52;;;;;;;1.73;1.63;;;;;;;;;;1051854;28;20023;-73
2023/12/07 00:33:23;;;;;;;2.63;2.40;;;;;;;;;;1051229;28;20438;-73
2023/12/07 00:33:53;;;;;;;6.90;2.42;;;;;;;;;;1051609;28;20509;-74
2023/12/07 00:34:24;;;;;;;2.90;2.15;;;;;;;;;;1051592;28;20154;-73
2023/12/07 00:34:54;;;;;;;1.90;1.80;;;;;;;;;;1051564;28;20020;-73
2023/12/07 00:35:28;;;;;;;1.40;1.30;;;;;;;;;;1051682;28;20046;-73
2023/12/07 00:35:59;;;;;;;5.85;2.53;;;;;;;;;;1051372;28;20016;-73
2023/12/07 00:36:29;;;;;;;2.58;2.38;;;;;;;;;;1051217;28;20062;-73
2023/12/07 00:37:00;;;;;;;3.20;2.60;;;;;;;;;;1051810;28;20170;-73
2023/12/07 00:37:30;;;;;;;0.50;0.50;;;;;;;;;;1051667;28;20040;-73
2023/12/07 00:38:01;;;;;;;2.15;2.03;;;;;;;;;;1051936;28;20027;-73
2023/12/07 00:38:32;;;;;;;2.00;1.85;;;;;;;;;;1051297;28;20023;-73
2023/12/07 00:39:04;;;;;;;3.45;3.22;;;;;;;;;;1051675;28;20114;-73
2023/12/07 00:39:34;;;;;;;1.48;1.42;;;;;;;;;;1051425;28;20038;-73
2023/12/07 00:40:05;;;;;;;4.75;3.67;;;;;;;;;;1050820;28;20027;-73
2023/12/07 00:40:38;;;;;;;1.60;1.33;;;;;;;;;;1051900;28;20387;-73
2023/12/07 00:41:09;;;;;;;3.63;2.78;;;;;;;;;;1051772;28;20055;-73
2023/12/07 00:41:39;;;;;;;4.10;1.35;;;;;;;;;;1051920;28;20587;-73
2023/12/07 00:42:09;;;;;;;8.38;4.60;;;;;;;;;;1051891;28;20024;-73
2023/12/07 00:42:40;;;;;;;7.63;2.92;;;;;;;;;;1051896;28;20027;-73
2023/12/07 00:43:11;;;;;;;2.92;2.35;;;;;;;;;;1051412;28;20024;-73
2023/12/07 00:43:41;;;;;;;9.10;2.00;;;;;;;;;;1051852;28;20020;-73
2023/12/07 00:44:12;;;;;;;4.35;3.97;;;;;;;;;;1049463;28;20024;-73
2023/12/07 00:44:42;;;;;;;12.10;5.65;;;;;;;;;;1047089;28;20054;-73
2023/12/07 00:45:13;;;;;;;11.73;2.35;;;;;;;;;;1050595;28;20456;-73
2023/12/07 00:45:43;;;;;;;12.25;4.65;;;;;;;;;;1051531;28;20110;-73
2023/12/07 00:46:14;;;;;;;5.82;3.20;;;;;;;;;;1051503;28;20400;-73
2023/12/07 00:46:44;;;;;;;1.80;1.63;;;;;;;;;;1049866;28;20021;-73
2023/12/07 00:47:14;;;;;;;2.15;1.75;;;;;;;;;;1049871;28;20101;-73
2023/12/07 00:47:45;;;;;;;6.50;4.65;;;;;;;;;;1049144;28;20627;-73
2023/12/07 00:48:15;;;;;;;11.02;5.63;;;;;;;;;;1047414;28;20458;-73
2023/12/07 00:48:46;;;;;;;5.20;2.50;;;;;;;;;;1051624;28;20073;-73
2023/12/07 00:49:16;;;;;;;1.60;1.52;;;;;;;;;;1049030;28;20021;-73
2023/12/07 00:49:47;;;;;;;3.33;1.80;;;;;;;;;;1049169;28;20027;-73
2023/12/07 00:50:17;;;;;;;2.55;2.05;;;;;;;;;;1049398;28;20024;-73
2023/12/07 00:50:48;;;;;;;8.30;2.83;;;;;;;;;;1050401;28;20031;-73
2023/12/07 00:51:18;;;;;;;4.50;1.45;;;;;;;;;;1051582;28;20027;-73
2023/12/07 00:51:49;;;;;;;6.85;1.88;;;;;;;;;;1051403;28;20119;-73
2023/12/07 00:52:19;;;;;;;9.55;4.00;;;;;;;;;;1051956;28;20059;-73
2023/12/07 00:52:50;;;;;;;6.80;2.80;;;;;;;;;;1052017;28;20020;-73
2023/12/07 00:53:20;;;;;;;1.48;1.40;;;;;;;;;;1052053;28;20081;-73
2023/12/07 00:53:50;;;;;;;2.55;2.17;;;;;;;;;;1051980;28;20024;-73
2023/12/07 00:54:21;;;;;;;2.15;1.95;;;;;;;;;;1049907;28;20026;-73
2023/12/07 00:54:51;;;;;;;0.68;0.68;;;;;;;;;;1051426;28;20467;-73
2023/12/07 00:55:22;;;;;;;1.50;1.40;;;;;;;;;;1051555;28;20023;-73
2023/12/07 00:55:52;;;;;;;1.58;1.48;;;;;;;;;;1051719;28;20024;-73
2023/12/07 00:56:22;;;;;;;1.52;1.42;;;;;;;;;;1051426;28;20031;-73
2023/12/07 00:56:53;;;;;;;2.75;2.15;;;;;;;;;;1051549;28;20020;-73
2023/12/07 00:57:23;;;;;;;3.42;2.35;;;;;;;;;;1051523;28;20381;-73
2023/12/07 00:57:54;;;;;;;3.72;2.70;;;;;;;;;;1051955;28;20038;-73
2023/12/07 00:58:24;;;;;;;6.50;4.38;;;;;;;;;;1051868;28;20028;-73
2023/12/07 00:58:55;;;;;;;4.63;3.42;;;;;;;;;;1051966;28;20023;-73
2023/12/07 00:59:25;;;;;;;1.75;1.25;;;;;;;;;;1051579;28;20553;-73
2023/12/07 00:59:55;;;;;;;10.55;5.65;;;;;;;;;;1051476;28;20054;-73
2023/12/07 01:00:26;;;;;;;7.07;1.77;;;;;;;;;;1051430;28;20438;-73
2023/12/07 01:00:56;;;;;;;3.40;2.65;;;;;;;;;;1051915;28;20162;-73
2023/12/07 01:01:28;;;;;;;0.77;0.77;;;;;;;;;;1051455;28;20390;-73
2023/12/07 01:01:58;;;;;;;4.35;2.30;;;;;;;;;;1050585;28;20035;-73
2023/12/07 01:02:29;;;;;;;1.23;1.23;;;;;;;;;;1051508;28;20020;-73
2023/12/07 01:03:00;;;;;;;3.75;2.08;;;;;;;;;;1051774;28;20051;-73
2023/12/07 01:03:30;;;;;;;0.63;0.63;;;;;;;;;;1051898;28;20020;-73
2023/12/07 01:04:01;;;;;;;2.13;2.03;;;;;;;;;;1052066;28;20027;-73
2023/12/07 01:04:32;;;;;;;1.67;1.45;;;;;;;;;;1050699;28;20107;-73
2023/12/07 01:05:02;;;;;;;2.55;2.13;;;;;;;;;;1049457;28;20043;-73
2023/12/07 01:05:33;;;;;;;4.15;2.35;;;;;;;;;;1049493;28;20094;-73
2023/12/07 01:06:04;;;;;;;5.95;2.58;;;;;;;;;;1049311;28;20074;-73
2023/12/07 01:06:35;;;;;;;3.50;2.83;;;;;;;;;;1044858;28;20031;-73
2023/12/07 01:07:05;;;;;;;2.00;1.67;;;;;;;;;;1051504;28;20107;-73
2023/12/07 01:07:36;;;;;;;4.07;3.67;;;;;;;;;;1050918;28;20027;-73
2023/12/07 01:08:07;;;;;;;2.78;2.20;;;;;;;;;;1050950;28;20027;-73
2023/12/07 01:08:37;;;;;;;2.92;0.88;;;;;;;;;;1051089;28;20107;-73
2023/12/07 01:09:12;;;;;;;1.60;1.20;;;;;;;;;;1051832;28;20030;-73
2023/12/07 01:09:43;;;;;;;3.63;3.03;;;;;;;;;;1051353;28;20114;-73
2023/12/07 01:10:13;;;;;;;1.48;1.38;;;;;;;;;;1048828;28;20024;-73
2023/12/07 01:10:44;;;;;;;2.13;1.95;;;;;;;;;;1050976;28;20082;-73
2023/12/07 01:11:14;;;;;;;6.28;3.78;;;;;;;;;;1051622;28;20024;-73
2023/12/07 01:11:45;;;;;;;5.25;2.28;;;;;;;;;;1050592;28;20052;-73
2023/12/07 01:12:15;;;;;;;1.98;1.88;;;;;;;;;;1051200;28;20028;-73
2023/12/07 01:12:46;;;;;;;4.47;3.38;;;;;;;;;;1051667;28;20024;-73
2023/12/07 01:13:16;;;;;;;1.88;1.50;;;;;;;;;;1051211;28;20023;-73
2023/12/07 01:13:46;;;;;;;10.80;3.25;;;;;;;;;;1050652;28;20085;-73
2023/12/07 01:14:17;;;;;;;4.75;2.90;;;;;;;;;;1051549;28;20020;-73
2023/12/07 01:14:48;;;;;;;1.60;1.08;;;;;;;;;;1050913;28;20035;-73
2023/12/07 01:15:18;;;;;;;2.63;1.98;;;;;;;;;;1051280;28;20024;-72
2023/12/07 01:15:49;;;;;;;10.43;3.15;;;;;;;;;;1051264;28;20030;-72
2023/12/07 01:16:19;;;;;;;2.88;2.65;;;;;;;;;;1051390;28;20049;-72
2023/12/07 01:16:50;;;;;;;5.93;1.58;;;;;;;;;;1051859;28;20031;-72
2023/12/07 01:17:20;;;;;;;6.03;4.47;;;;;;;;;;1051967;28;20020;-74
2023/12/07 01:17:51;;;;;;;1.33;1.15;;;;;;;;;;1051501;28;20028;-73
2023/12/07 01:18:21;;;;;;;3.42;2.05;;;;;;;;;;1051428;28;20103;-72
2023/12/07 01:18:52;;;;;;;3.63;2.20;;;;;;;;;;1051420;28;20028;-72
2023/12/07 01:19:22;;;;;;;3.75;2.85;;;;;;;;;;1051517;28;20129;-72
2023/12/07 01:19:53;;;;;;;2.20;2.00;;;;;;;;;;1050598;28;20031;-73
2023/12/07 01:20:23;;;;;;;3.55;2.63;;;;;;;;;;1050894;28;20458;-72
2023/12/07 01:20:53;;;;;;;4.32;3.38;;;;;;;;;;1051434;28;20024;-73
2023/12/07 01:21:24;;;;;;;8.68;3.50;;;;;;;;;;1051295;28;20020;-73
2023/12/07 01:21:54;;;;;;;2.30;1.73;;;;;;;;;;1049950;28;20096;-73
2023/12/07 01:22:25;;;;;;;2.55;2.35;;;;;;;;;;1050714;28;20051;-73
2023/12/07 01:22:55;;;;;;;2.25;2.05;;;;;;;;;;1050713;28;20071;-72
2023/12/07 01:23:26;;;;;;;3.85;2.22;;;;;;;;;;1049095;28;20109;-73
2023/12/07 01:23:58;;;;;;;2.55;2.33;;;;;;;;;;1051613;28;20035;-73
2023/12/07 01:24:29;;;;;;;8.07;2.53;;;;;;;;;;1050264;28;20058;-72
2023/12/07 01:24:59;;;;;;;6.15;3.42;;;;;;;;;;1051350;28;20472;-72
2023/12/07 01:25:30;;;;;;;1.80;1.70;;;;;;;;;;1051725;28;20049;-72
2023/12/07 01:26:02;;;;;;;6.43;2.55;;;;;;;;;;1051707;28;20024;-72
2023/12/07 01:26:33;;;;;;;1.98;1.83;;;;;;;;;;1051404;28;20054;-72
2023/12/07 01:27:03;;;;;;;2.50;0.95;;;;;;;;;;1051714;28;20557;-72
2023/12/07 01:27:34;;;;;;;3.40;3.00;;;;;;;;;;1050242;28;20052;-72
2023/12/07 01:28:05;;;;;;;4.75;3.40;;;;;;;;;;1049531;28;20055;-73
2023/12/07 01:28:35;;;;;;;2.42;1.40;;;;;;;;;;1045798;28;20110;-72
2023/12/07 01:29:06;;;;;;;1.55;1.45;;;;;;;;;;1046148;28;20032;-71
2023/12/07 01:29:36;;;;;;;2.50;2.20;;;;;;;;;;1051071;28;20023;-73
2023/12/07 01:30:07;;;;;;;2.40;0.70;;;;;;;;;;1051002;28;20153;-72
2023/12/07 01:30:37;;;;;;;1.67;1.58;;;;;;;;;;1050835;28;20101;-72
2023/12/07 01:31:08;;;;;;;8.32;4.22;;;;;;;;;;1050382;28;20086;-72
2023/12/07 01:31:38;;;;;;;5.30;1.75;;;;;;;;;;1049390;28;20596;-72
2023/12/07 01:32:09;;;;;;;3.15;2.25;;;;;;;;;;1047842;28;20886;-72
2023/12/07 01:32:39;;;;;;;7.07;3.60;;;;;;;;;;1048590;28;20028;-74
2023/12/07 01:33:10;;;;;;;8.20;3.28;;;;;;;;;;1049360;28;20509;-73
2023/12/07 01:33:40;;;;;;;2.15;1.33;;;;;;;;;;1047822;28;20034;-73
2023/12/07 01:34:11;;;;;;;4.50;3.58;;;;;;;;;;1050102;28;20028;-73
2023/12/07 01:34:41;;;;;;;2.78;1.85;;;;;;;;;;1049557;28;20032;-72
2023/12/07 01:35:12;;;;;;;3.35;1.05;;;;;;;;;;1049950;28;20119;-72
2023/12/07 01:35:43;;;;;;;4.82;2.53;;;;;;;;;;1050178;28;20111;-72
2023/12/07 01:36:13;;;;;;;1.73;1.60;;;;;;;;;;1049779;28;20028;-73
2023/12/07 01:36:44;;;;;;;3.47;3.17;;;;;;;;;;1050771;28;20015;-72
2023/12/07 01:37:14;;;;;;;10.07;4.35;;;;;;;;;;1048722;28;20108;-72
2023/12/07 01:37:45;;;;;;;3.13;2.20;;;;;;;;;;1050182;28;20115;-74
2023/12/07 01:38:15;;;;;;;1.63;0.85;;;;;;;;;;1050784;28;20031;-73
2023/12/07 01:38:46;;;;;;;4.15;3.78;;;;;;;;;;1047607;28;20464;-73
2023/12/07 01:39:17;;;;;;;4.40;1.33;;;;;;;;;;1044333;28;20054;-73
2023/12/07 01:39:47;;;;;;;12.25;5.07;;;;;;;;;;1042881;28;20079;-73
2023/12/07 01:40:18;;;;;;;5.05;2.85;;;;;;;;;;1046723;28;20024;-73
2023/12/07 01:40:48;;;;;;;2.05;1.95;;;;;;;;;;1043393;28;20024;-73
2023/12/07 01:41:19;;;;;;;4.30;3.90;;;;;;;;;;1046952;28;20125;-73
2023/12/07 01:41:50;;;;;;;6.68;1.58;;;;;;;;;;1046848;28;20534;-74
2023/12/07 01:42:20;;;;;;;5.63;3.40;;;;;;;;;;1046847;28;20423;-74
2023/12/07 01:42:54;;;;;;;2.38;2.05;;;;;;;;;;1050982;28;20042;-73
2023/12/07 01:43:24;;;;;;;3.45;2.53;;;;;;;;;;1050621;28;20544;-73
2023/12/07 01:43:55;;;;;;;6.05;3.55;;;;;;;;;;1050553;28;20027;-74
2023/12/07 01:44:27;;;;;;;5.38;2.15;;;;;;;;;;1050801;28;20044;-73
2023/12/07 01:44:58;;;;;;;3.40;2.45;;;;;;;;;;1052394;28;20024;-74
2023/12/07 01:45:28;;;;;;;1.88;1.77;;;;;;;;;;1051205;28;20024;-74
2023/12/07 01:45:59;;;;;;;5.10;2.40;;;;;;;;;;1052094;28;20443;-74
2023/12/07 01:46:30;;;;;;;8.20;1.63;;;;;;;;;;1050714;28;20059;-73
2023/12/07 01:47:01;;;;;;;8.07;4.88;;;;;;;;;;1050857;28;20028;-73
2023/12/07 01:47:33;;;;;;;3.22;2.92;;;;;;;;;;1051536;28;20081;-73
2023/12/07 01:48:04;;;;;;;11.07;5.35;;;;;;;;;;1051632;28;20137;-74
2023/12/07 01:48:34;;;;;;;1.35;1.25;;;;;;;;;;1052476;28;20049;-75
2023/12/07 01:49:05;;;;;;;4.32;3.90;;;;;;;;;;1052841;28;20093;-75
2023/12/07 01:49:35;;;;;;;3.20;2.05;;;;;;;;;;1052233;28;20028;-75
2023/12/07 01:50:08;;;;;;;2.25;2.15;;;;;;;;;;1053202;28;20024;-74
2023/12/07 01:50:38;;;;;;;1.58;1.48;;;;;;;;;;1046901;28;20019;-73
2023/12/07 01:51:10;;;;;;;4.88;2.65;;;;;;;;;;1046513;28;20055;-73
2023/12/07 01:51:40;;;;;;;6.45;2.25;;;;;;;;;;1048640;28;20029;-75
2023/12/07 01:52:11;;;;;;;3.70;2.83;;;;;;;;;;1050965;28;20084;-73
2023/12/07 01:52:45;;;;;;;6.20;4.78;;;;;;;;;;1052152;28;20476;-73
2023/12/07 01:53:16;;;;;;;2.00;1.88;;;;;;;;;;1051494;28;20105;-73
2023/12/07 01:53:47;;;;;;;2.22;1.95;;;;;;;;;;1050672;28;20028;-74
2023/12/07 01:54:21;;;;;;;0.63;0.60;;;;;;;;;;1050502;28;20585;-74
2023/12/07 01:54:51;;;;;;;2.97;2.70;;;;;;;;;;1051707;28;20031;-74
2023/12/07 01:55:22;;;;;;;2.08;1.88;;;;;;;;;;1052737;28;20387;-74
2023/12/07 01:55:53;;;;;;;4.63;4.10;;;;;;;;;;1051929;28;20027;-74
2023/12/07 01:56:24;;;;;;;8.57;2.22;;;;;;;;;;1050433;28;20020;-74
2023/12/07 01:56:56;;;;;;;6.18;3.45;;;;;;;;;;1050822;28;20533;-74
2023/12/07 01:57:27;;;;;;;2.35;1.95;;;;;;;;;;1051361;28;20508;-75
2023/12/07 01:57:57;;;;;;;11.65;4.85;;;;;;;;;;1050931;28;20020;-74
2023/12/07 01:58:28;;;;;;;4.13;3.63;;;;;;;;;;1051055;28;20093;-74
2023/12/07 01:58:58;;;;;;;1.73;1.63;;;;;;;;;;1051909;28;20028;-74
2023/12/07 01:59:28;;;;;;;2.90;2.53;;;;;;;;;;1051644;28;20024;-74
2023/12/07 01:59:59;;;;;;;2.25;1.20;;;;;;;;;;1051714;28;20150;-74
2023/12/07 02:00:30;;;;;;;9.05;2.33;;;;;;;;;;1048646;28;20598;-74
2023/12/07 02:01:01;;;;;;;2.55;2.38;;;;;;;;;;1048745;28;20028;-74
2023/12/07 02:01:31;;;;;;;8.65;2.85;;;;;;;;;;1050961;28;20028;-74
2023/12/07 02:02:02;;;;;;;5.20;2.92;;;;;;;;;;1046661;28;20957;-74
2023/12/07 02:02:32;;;;;;;1.90;1.60;;;;;;;;;;1051511;28;20027;-73
2023/12/07 02:03:04;;;;;;;5.13;3.78;;;;;;;;;;1046595;28;20554;-73
2023/12/07 02:03:34;;;;;;;6.18;1.33;;;;;;;;;;1047908;28;20032;-74
2023/12/07 02:04:05;;;;;;;2.22;1.85;;;;;;;;;;1052448;28;20027;-73
2023/12/07 02:04:36;;;;;;;5.18;2.33;;;;;;;;;;1046699;28;20660;-75
2023/12/07 02:05:06;;;;;;;5.10;3.78;;;;;;;;;;1051821;28;20051;-74
2023/12/07 02:05:37;;;;;;;9.05;3.10;;;;;;;;;;1049251;28;20034;-73
2023/12/07 02:06:08;;;;;;;2.25;2.05;;;;;;;;;;1047745;28;20302;-73
2023/12/07 02:06:39;;;;;;;3.15;2.90;;;;;;;;;;1049296;28;20062;-73
2023/12/07 02:07:09;;;;;;;2.13;1.90;;;;;;;;;;1049250;28;20471;-74
2023/12/07 02:07:43;;;;;;;2.25;1.85;;;;;;;;;;1047112;28;20021;-73
2023/12/07 02:08:14;;;;;;;3.03;2.80;;;;;;;;;;1044491;28;20056;-73
2023/12/07 02:08:48;;;;;;;3.78;3.08;;;;;;;;;;1046324;28;20416;-74
2023/12/07 02:09:18;;;;;;;1.35;1.25;;;;;;;;;;1049211;28;20024;-74
2023/12/07 02:09:49;;;;;;;4.53;3.58;;;;;;;;;;1051570;28;20012;-74
2023/12/07 02:10:19;;;;;;;4.70;2.70;;;;;;;;;;1050227;28;20043;-74
2023/12/07 02:10:52;;;;;;;3.10;2.90;;;;;;;;;;1050641;28;20024;-74
2023/12/07 02:11:23;;;;;;;9.07;1.70;;;;;;;;;;1051466;28;20036;-75
2023/12/07 02:11:53;;;;;;;1.65;1.55;;;;;;;;;;1050331;28;20012;-75
2023/12/07 02:12:24;;;;;;;3.50;0.77;;;;;;;;;;1051581;28;20069;-74
2023/12/07 02:12:55;;;;;;;4.95;1.90;;;;;;;;;;1051863;28;20422;-73
2023/12/07 02:13:25;;;;;;;3.55;2.15;;;;;;;;;;1051614;28;20110;-73
2023/12/07 02:13:57;;;;;;;2.90;2.65;;;;;;;;;;1050748;28;20051;-73
2023/12/07 02:14:27;;;;;;;4.72;2.00;;;;;;;;;;1048455;28;20032;-73
2023/12/07 02:14:59;;;;;;;2.05;1.80;;;;;;;;;;1052820;28;20024;-73
2023/12/07 02:15:29;;;;;;;9.68;2.15;;;;;;;;;;1052291;28;20027;-74
2023/12/07 02:16:00;;;;;;;3.72;2.35;;;;;;;;;;1049869;28;20526;-74
2023/12/07 02:16:36;;;;;;;10.10;4.30;;;;;;;;;;1047019;28;20431;-74
2023/12/07 02:17:16;;;;;;;17.42;4.13;;;;;;;;;;1048096;28;20077;-72
2023/12/07 02:17:51;;;;;;;10.38;4.15;;;;;;;;;;1049413;28;20131;-74
2023/12/07 02:18:28;;;;;;;4.35;2.10;;;;;;;;;;1053518;28;20032;-73
2023/12/07 02:19:16;;;;;;;3.72;3.42;;;;;;;;;;1050766;28;20028;-74
2023/12/07 02:19:50;;;;;;;8.20;2.10;;;;;;;;;;1051616;28;20480;-73
2023/12/07 02:20:24;;;;;;;16.88;3.72;;;;;;;;;;1051659;28;20020;-73
2023/12/07 02:21:04;;;;;;;2.25;2.05;;;;;;;;;;1052361;28;20016;-73
2023/12/07 02:21:34;;;;;;;;;;;;;;;;;;1052508;28;20028;-73
2023/12/07 02:22:10;;;;;;;2.60;1.60;;;;;;;;;;1052168;28;19911;-74
2023/12/07 02:22:40;;;;;;;2.58;2.38;;;;;;;;;;1051155;28;20023;-73
2023/12/07 02:23:13;;;;;;;3.03;2.22;;;;;;;;;;1051885;28;20442;-74
2023/12/07 02:23:44;;;;;;;2.75;2.55;;;;;;;;;;1051125;28;20075;-74
2023/12/07 02:24:17;;;;;;;0.75;0.75;;;;;;;;;;1051928;28;20437;-74
2023/12/07 02:24:52;;;;;;;2.25;2.05;;;;;;;;;;1048829;28;20119;-74
2023/12/07 02:25:29;;;;;;;2.92;2.08;;;;;;;;;;1049502;28;20492;-74
2023/12/07 02:26:02;;;;;;;9.43;3.10;;;;;;;;;;1048244;28;20020;-73
2023/12/07 02:26:37;;;;;;;2.10;1.95;;;;;;;;;;1047153;28;20024;-75
2023/12/07 02:27:08;;;;;;;4.18;1.98;;;;;;;;;;1049395;28;20035;-75
2023/12/07 02:27:42;;;;;;;5.15;2.08;;;;;;;;;;1049581;28;20023;-75
2023/12/07 02:28:13;;;;;;;5.82;3.58;;;;;;;;;;1049097;28;20029;-74
2023/12/07 02:28:43;;;;;;;3.63;2.70;;;;;;;;;;1050822;28;20110;-74
2023/12/07 02:29:14;;;;;;;5.38;1.40;;;;;;;;;;1051838;28;20055;-73
2023/12/07 02:29:44;;;;;;;7.82;1.67;;;;;;;;;;1050091;28;20675;-74
2023/12/07 02:30:15;;;;;;;3.97;3.63;;;;;;;;;;1051523;28;20169;-74
2023/12/07 02:30:46;;;;;;;5.38;2.22;;;;;;;;;;1048434;28;20051;-74
2023/12/07 02:31:16;;;;;;;3.15;1.15;;;;;;;;;;1043664;28;20126;-73
2023/12/07 02:31:47;;;;;;;5.15;2.70;;;;;;;;;;1044527;28;20028;-73
2023/12/07 02:32:18;;;;;;;6.95;4.95;;;;;;;;;;1043329;28;20037;-74
2023/12/07 02:32:48;;;;;;;12.27;5.18;;;;;;;;;;1046068;28;20029;-74
2023/12/07 02:33:19;;;;;;;4.15;3.08;;;;;;;;;;1044367;28;20033;-74
2023/12/07 02:33:50;;;;;;;7.93;4.50;;;;;;;;;;1038096;28;20033;-75
2023/12/07 02:34:20;;;;;;;2.63;1.80;;;;;;;;;;1038475;28;20032;-74
2023/12/07 02:34:51;;;;;;;4.85;2.45;;;;;;;;;;1041322;28;20032;-73
2023/12/07 02:35:22;;;;;;;1.75;1.48;;;;;;;;;;1044074;28;20087;-74
2023/12/07 02:35:52;;;;;;;9.32;3.28;;;;;;;;;;1050494;28;20027;-73
2023/12/07 02:36:24;;;;;;;5.22;3.85;;;;;;;;;;1049148;28;20032;-75
2023/12/07 02:36:57;;;;;;;5.15;2.85;;;;;;;;;;1047161;28;20012;-73
2023/12/07 02:37:28;;;;;;;1.35;1.25;;;;;;;;;;1044713;28;20573;-73
2023/12/07 02:38:00;;;;;;;2.70;2.35;;;;;;;;;;1044720;28;20512;-74
2023/12/07 02:38:32;;;;;;;11.93;3.35;;;;;;;;;;1045836;28;20058;-74
2023/12/07 02:39:03;;;;;;;12.15;4.95;;;;;;;;;;1045531;28;20016;-73
2023/12/07 02:39:33;;;;;;;1.98;1.85;;;;;;;;;;1044937;28;20048;-73
2023/12/07 02:40:09;;;;;;;8.07;3.55;;;;;;;;;;1049766;28;20395;-74
2023/12/07 02:40:40;;;;;;;5.47;4.50;;;;;;;;;;1046259;28;20036;-74
2023/12/07 02:41:11;;;;;;;6.35;1.80;;;;;;;;;;1049494;28;20031;-75
2023/12/07 02:41:43;;;;;;;8.95;1.85;;;;;;;;;;1048767;28;20032;-76
2023/12/07 02:42:14;;;;;;;12.20;5.47;;;;;;;;;;1049605;28;20028;-73
2023/12/07 02:42:44;;;;;;;3.88;1.25;;;;;;;;;;1049811;28;20026;-75
2023/12/07 02:43:16;;;;;;;3.05;2.85;;;;;;;;;;1045241;28;20493;-74
2023/12/07 02:43:47;;;;;;;5.55;3.65;;;;;;;;;;1045624;28;20428;-74
2023/12/07 02:44:20;;;;;;;5.95;2.25;;;;;;;;;;1046362;28;20079;-73
2023/12/07 02:44:54;;;;;;;3.88;3.58;;;;;;;;;;1050631;28;20051;-73
2023/12/07 02:45:26;;;;;;;3.92;2.78;;;;;;;;;;1047782;28;20031;-73
2023/12/07 02:45:56;;;;;;;5.63;4.25;;;;;;;;;;1051312;28;20060;-75
2023/12/07 02:46:28;;;;;;;6.07;3.05;;;;;;;;;;1047806;28;20374;-74
2023/12/07 02:46:58;;;;;;;11.73;3.70;;;;;;;;;;1044129;28;20036;-74
2023/12/07 02:47:29;;;;;;;6.88;3.53;;;;;;;;;;1041617;28;20024;-74
2023/12/07 02:48:00;;;;;;;12.07;4.68;;;;;;;;;;1042485;28;20028;-74
2023/12/07 02:48:30;;;;;;;7.82;5.10;;;;;;;;;;1041250;28;20032;-74
2023/12/07 02:49:01;;;;;;;3.15;2.92;;;;;;;;;;1045041;28;20032;-74
2023/12/07 02:49:31;;;;;;;5.35;3.00;;;;;;;;;;1047534;28;20032;-75
2023/12/07 02:50:05;;;;;;;4.43;2.13;;;;;;;;;;1048231;28;20193;-72
2023/12/07 02:50:36;;;;;;;9.70;4.15;;;;;;;;;;1049202;28;20020;-73
2023/12/07 02:51:06;;;;;;;9.68;4.03;;;;;;;;;;1049577;28;20027;-73
2023/12/07 02:51:37;;;;;;;9.32;5.35;;;;;;;;;;1048854;28;20082;-74
2023/12/07 02:52:07;;;;;;;2.33;2.10;;;;;;;;;;1048995;28;20408;-73
2023/12/07 02:52:38;;;;;;;7.60;3.42;;;;;;;;;;1049531;28;20035;-75
2023/12/07 02:53:08;;;;;;;6.88;3.47;;;;;;;;;;1049108;28;20460;-73
2023/12/07 02:53:39;;;;;;;5.45;3.05;;;;;;;;;;1049290;28;20566;-73
2023/12/07 02:54:09;;;;;;;4.47;3.28;;;;;;;;;;1048323;28;20059;-73
2023/12/07 02:54:40;;;;;;;8.25;3.28;;;;;;;;;;1050081;28;20493;-73
2023/12/07 02:55:10;;;;;;;6.05;4.45;;;;;;;;;;1050645;28;20024;-73
2023/12/07 02:55:41;;;;;;;14.88;2.92;;;;;;;;;;1051198;28;20028;-73
2023/12/07 02:56:11;;;;;;;23.63;6.43;;;;;;;;;;1049161;28;20024;-73
2023/12/07 02:56:42;;;;;;;7.43;3.75;;;;;;;;;;1048082;28;20091;-73
2023/12/07 02:57:14;;;;;;;4.80;3.03;;;;;;;;;;1047993;28;20093;-74
2023/12/07 02:57:46;;;;;;;3.88;3.45;;;;;;;;;;1046364;28;20266;-73
2023/12/07 02:58:16;;;;;;;6.78;4.15;;;;;;;;;;1047983;28;20120;-73
2023/12/07 02:58:47;;;;;;;2.53;2.35;;;;;;;;;;1048986;28;20036;-74
2023/12/07 02:59:17;;;;;;;4.78;4.38;;;;;;;;;;1049829;28;20505;-74
2023/12/07 02:59:48;;;;;;;2.28;2.08;;;;;;;;;;1050164;28;20023;-73
2023/12/07 03:00:18;;;;;;;8.02;4.35;;;;;;;;;;1045831;28;20613;-74
2023/12/07 03:00:49;;;;;;;7.47;5.60;;;;;;;;;;1043979;28;20432;-74
2023/12/07 03:01:20;;;;;;;12.10;7.13;;;;;;;;;;1045723;28;20490;-74
2023/12/07 03:01:50;;;;;;;4.45;3.03;;;;;;;;;;1045436;28;20452;-75
2023/12/07 03:02:21;;;;;;;6.30;4.05;;;;;;;;;;1048144;28;20028;-74
2023/12/07 03:02:51;;;;;;;4.10;3.35;;;;;;;;;;1048440;28;20267;-76
2023/12/07 03:03:22;;;;;;;7.93;4.25;;;;;;;;;;1047476;28;20328;-76
2023/12/07 03:03:53;;;;;;;13.25;4.60;;;;;;;;;;1042355;28;20025;-75
2023/12/07 03:04:25;;;;;;;6.80;4.53;;;;;;;;;;1040448;28;20031;-74
2023/12/07 03:04:56;;;;;;;14.35;6.15;;;;;;;;;;1041263;28;20028;-73
2023/12/07 03:05:28;;;;;;;4.82;3.33;;;;;;;;;;1039833;28;20097;-74
2023/12/07 03:05:58;;;;;;;3.72;3.00;;;;;;;;;;1044633;28;20024;-74